sensor_id;sensor_type;location;lat;lon;timestamp;P1;durP1;ratioP1;P2;durP2;ratioP2
53525;SDS011;40551;50.478;19.378;2023-06-26T00:04:02;11.10;;;9.70;;
53525;SDS011;40551;50.478;19.378;2023-06-26T00:06:31;13.20;;;10.50;;
53525;SDS011;40551;50.478;19.378;2023-06-26T00:09:05;13.50;;;9.70;;
53525;SDS011;40551;50.478;19.378;2023-06-26T00:11:34;11.70;;;10.10;;
53525;SDS011;40551;50.478;19.378;2023-06-26T00:14:03;12.30;;;9.30;;
53525;SDS011;40551;50.478;19.378;2023-06-26T00:24:51;12.80;;;10.70;;
53525;SDS011;40551;50.478;19.378;2023-06-26T00:28:22;12.90;;;10.60;;
53525;SDS011;40551;50.478;19.378;2023-06-26T00:30:54;11.40;;;10.20;;
53525;SDS011;40551;50.478;19.378;2023-06-26T00:33:26;13.60;;;10.50;;
53525;SDS011;40551;50.478;19.378;2023-06-26T00:35:59;12.90;;;10.40;;
53525;SDS011;40551;50.478;19.378;2023-06-26T00:38:32;11.30;;;10.10;;
53525;SDS011;40551;50.478;19.378;2023-06-26T00:41:08;11.20;;;10.10;;
53525;SDS011;40551;50.478;19.378;2023-06-26T00:43:42;12.70;;;10.80;;
53525;SDS011;40551;50.478;19.378;2023-06-26T00:46:16;11.80;;;10.20;;
53525;SDS011;40551;50.478;19.378;2023-06-26T00:48:48;12.00;;;10.70;;
53525;SDS011;40551;50.478;19.378;2023-06-26T00:51:21;11.90;;;10.40;;
53525;SDS011;40551;50.478;19.378;2023-06-26T00:53:53;13.60;;;11.00;;
53525;SDS011;40551;50.478;19.378;2023-06-26T00:56:26;11.50;;;10.30;;
53525;SDS011;40551;50.478;19.378;2023-06-26T00:59:00;13.90;;;10.90;;
53525;SDS011;40551;50.478;19.378;2023-06-26T01:01:32;12.60;;;10.70;;
53525;SDS011;40551;50.478;19.378;2023-06-26T01:04:04;14.10;;;11.00;;
53525;SDS011;40551;50.478;19.378;2023-06-26T01:06:36;13.10;;;11.00;;
53525;SDS011;40551;50.478;19.378;2023-06-26T01:09:08;12.80;;;11.30;;
53525;SDS011;40551;50.478;19.378;2023-06-26T01:11:41;12.30;;;11.00;;
53525;SDS011;40551;50.478;19.378;2023-06-26T01:14:13;13.00;;;11.10;;
53525;SDS011;40551;50.478;19.378;2023-06-26T01:16:46;14.80;;;11.30;;
53525;SDS011;40551;50.478;19.378;2023-06-26T01:19:20;12.90;;;11.60;;
53525;SDS011;40551;50.478;19.378;2023-06-26T01:22:00;11.90;;;10.70;;
53525;SDS011;40551;50.478;19.378;2023-06-26T01:24:47;13.70;;;10.60;;
53525;SDS011;40551;50.478;19.378;2023-06-26T01:27:30;13.50;;;11.40;;
53525;SDS011;40551;50.478;19.378;2023-06-26T01:30:02;11.60;;;10.00;;
53525;SDS011;40551;50.478;19.378;2023-06-26T01:32:37;11.60;;;10.10;;
53525;SDS011;40551;50.478;19.378;2023-06-26T01:35:10;13.80;;;10.50;;
53525;SDS011;40551;50.478;19.378;2023-06-26T01:37:43;12.00;;;10.00;;
53525;SDS011;40551;50.478;19.378;2023-06-26T01:40:15;11.30;;;10.10;;
53525;SDS011;40551;50.478;19.378;2023-06-26T01:42:48;11.90;;;10.30;;
53525;SDS011;40551;50.478;19.378;2023-06-26T01:45:21;12.30;;;10.30;;
53525;SDS011;40551;50.478;19.378;2023-06-26T01:47:59;11.10;;;9.90;;
53525;SDS011;40551;50.478;19.378;2023-06-26T01:50:35;11.70;;;10.50;;
53525;SDS011;40551;50.478;19.378;2023-06-26T01:53:10;12.90;;;10.90;;
53525;SDS011;40551;50.478;19.378;2023-06-26T01:55:50;14.00;;;10.80;;
53525;SDS011;40551;50.478;19.378;2023-06-26T01:58:26;15.10;;;10.20;;
53525;SDS011;40551;50.478;19.378;2023-06-26T02:00:59;11.90;;;10.70;;
53525;SDS011;40551;50.478;19.378;2023-06-26T02:03:34;11.70;;;10.30;;
53525;SDS011;40551;50.478;19.378;2023-06-26T02:06:06;12.00;;;10.50;;
53525;SDS011;40551;50.478;19.378;2023-06-26T02:08:38;12.20;;;10.40;;
53525;SDS011;40551;50.478;19.378;2023-06-26T02:11:09;11.00;;;9.90;;
53525;SDS011;40551;50.478;19.378;2023-06-26T02:13:42;11.70;;;9.80;;
53525;SDS011;40551;50.478;19.378;2023-06-26T02:16:15;12.40;;;10.50;;
53525;SDS011;40551;50.478;19.378;2023-06-26T02:18:46;13.50;;;11.20;;
53525;SDS011;40551;50.478;19.378;2023-06-26T02:21:18;16.20;;;11.20;;
53525;SDS011;40551;50.478;19.378;2023-06-26T02:23:50;11.90;;;10.60;;
53525;SDS011;40551;50.478;19.378;2023-06-26T02:26:22;12.20;;;10.70;;
53525;SDS011;40551;50.478;19.378;2023-06-26T02:28:54;11.80;;;10.40;;
53525;SDS011;40551;50.478;19.378;2023-06-26T02:31:26;13.30;;;10.60;;
53525;SDS011;40551;50.478;19.378;2023-06-26T02:33:58;14.30;;;10.10;;
53525;SDS011;40551;50.478;19.378;2023-06-26T02:36:30;12.60;;;10.50;;
53525;SDS011;40551;50.478;19.378;2023-06-26T02:39:02;11.40;;;9.70;;
53525;SDS011;40551;50.478;19.378;2023-06-26T02:41:35;11.80;;;10.50;;
53525;SDS011;40551;50.478;19.378;2023-06-26T02:44:07;12.60;;;10.30;;
53525;SDS011;40551;50.478;19.378;2023-06-26T02:46:40;15.50;;;10.40;;
53525;SDS011;40551;50.478;19.378;2023-06-26T02:49:12;13.50;;;10.30;;
53525;SDS011;40551;50.478;19.378;2023-06-26T02:51:46;13.10;;;11.70;;
53525;SDS011;40551;50.478;19.378;2023-06-26T02:54:25;11.90;;;10.60;;
53525;SDS011;40551;50.478;19.378;2023-06-26T02:57:02;12.40;;;11.00;;
53525;SDS011;40551;50.478;19.378;2023-06-26T02:59:35;12.00;;;10.50;;
53525;SDS011;40551;50.478;19.378;2023-06-26T03:02:09;13.70;;;10.60;;
53525;SDS011;40551;50.478;19.378;2023-06-26T03:04:44;13.50;;;9.80;;
53525;SDS011;40551;50.478;19.378;2023-06-26T03:07:16;10.80;;;9.30;;
53525;SDS011;40551;50.478;19.378;2023-06-26T03:09:48;11.70;;;9.90;;
53525;SDS011;40551;50.478;19.378;2023-06-26T03:12:20;11.40;;;9.40;;
53525;SDS011;40551;50.478;19.378;2023-06-26T03:14:52;11.10;;;9.70;;
53525;SDS011;40551;50.478;19.378;2023-06-26T03:17:24;11.20;;;9.40;;
53525;SDS011;40551;50.478;19.378;2023-06-26T03:20:05;13.00;;;9.50;;
53525;SDS011;40551;50.478;19.378;2023-06-26T03:22:51;10.20;;;8.80;;
53525;SDS011;40551;50.478;19.378;2023-06-26T03:25:24;10.70;;;9.40;;
53525;SDS011;40551;50.478;19.378;2023-06-26T03:28:11;10.10;;;8.60;;
53525;SDS011;40551;50.478;19.378;2023-06-26T03:30:44;11.50;;;9.30;;
53525;SDS011;40551;50.478;19.378;2023-06-26T03:33:17;10.40;;;8.70;;
53525;SDS011;40551;50.478;19.378;2023-06-26T03:35:49;10.90;;;8.90;;
53525;SDS011;40551;50.478;19.378;2023-06-26T03:38:22;9.80;;;8.30;;
53525;SDS011;40551;50.478;19.378;2023-06-26T03:40:56;10.70;;;8.00;;
53525;SDS011;40551;50.478;19.378;2023-06-26T03:43:28;12.40;;;8.20;;
53525;SDS011;40551;50.478;19.378;2023-06-26T03:46:11;9.80;;;7.80;;
53525;SDS011;40551;50.478;19.378;2023-06-26T03:48:43;10.30;;;7.80;;
53525;SDS011;40551;50.478;19.378;2023-06-26T03:51:15;13.20;;;8.20;;
53525;SDS011;40551;50.478;19.378;2023-06-26T03:53:47;10.40;;;8.00;;
53525;SDS011;40551;50.478;19.378;2023-06-26T03:56:19;9.30;;;7.80;;
53525;SDS011;40551;50.478;19.378;2023-06-26T03:58:51;11.30;;;8.30;;
53525;SDS011;40551;50.478;19.378;2023-06-26T04:01:23;9.00;;;8.10;;
53525;SDS011;40551;50.478;19.378;2023-06-26T04:03:55;10.50;;;8.10;;
53525;SDS011;40551;50.478;19.378;2023-06-26T04:06:27;11.00;;;7.70;;
53525;SDS011;40551;50.478;19.378;2023-06-26T04:09:01;11.60;;;7.60;;
53525;SDS011;40551;50.478;19.378;2023-06-26T04:11:33;11.30;;;7.40;;
53525;SDS011;40551;50.478;19.378;2023-06-26T04:14:05;11.20;;;7.30;;
53525;SDS011;40551;50.478;19.378;2023-06-26T04:16:37;9.10;;;7.50;;
53525;SDS011;40551;50.478;19.378;2023-06-26T04:19:09;11.40;;;7.50;;
53525;SDS011;40551;50.478;19.378;2023-06-26T04:21:41;9.00;;;6.90;;
53525;SDS011;40551;50.478;19.378;2023-06-26T04:24:13;10.10;;;7.30;;
53525;SDS011;40551;50.478;19.378;2023-06-26T04:26:46;9.50;;;7.10;;
53525;SDS011;40551;50.478;19.378;2023-06-26T04:29:18;8.60;;;6.80;;
53525;SDS011;40551;50.478;19.378;2023-06-26T04:31:50;9.30;;;6.70;;
53525;SDS011;40551;50.478;19.378;2023-06-26T04:34:27;9.40;;;7.20;;
53525;SDS011;40551;50.478;19.378;2023-06-26T04:37:01;30.00;;;27.00;;
53525;SDS011;40551;50.478;19.378;2023-06-26T04:39:34;22.30;;;17.00;;
53525;SDS011;40551;50.478;19.378;2023-06-26T04:42:07;24.10;;;16.50;;
53525;SDS011;40551;50.478;19.378;2023-06-26T04:44:40;19.00;;;13.60;;
53525;SDS011;40551;50.478;19.378;2023-06-26T04:47:12;15.70;;;11.20;;
53525;SDS011;40551;50.478;19.378;2023-06-26T04:49:44;10.30;;;8.10;;
53525;SDS011;40551;50.478;19.378;2023-06-26T04:52:16;10.70;;;7.60;;
53525;SDS011;40551;50.478;19.378;2023-06-26T04:54:48;8.90;;;6.50;;
53525;SDS011;40551;50.478;19.378;2023-06-26T04:57:20;10.80;;;6.80;;
53525;SDS011;40551;50.478;19.378;2023-06-26T04:59:52;10.20;;;7.40;;
53525;SDS011;40551;50.478;19.378;2023-06-26T05:02:24;8.80;;;6.60;;
53525;SDS011;40551;50.478;19.378;2023-06-26T05:04:57;12.50;;;7.00;;
53525;SDS011;40551;50.478;19.378;2023-06-26T05:07:28;10.70;;;6.30;;
53525;SDS011;40551;50.478;19.378;2023-06-26T05:10:00;10.30;;;6.90;;
53525;SDS011;40551;50.478;19.378;2023-06-26T05:12:33;9.90;;;6.60;;
53525;SDS011;40551;50.478;19.378;2023-06-26T05:15:05;9.40;;;6.50;;
53525;SDS011;40551;50.478;19.378;2023-06-26T05:17:38;10.40;;;6.90;;
53525;SDS011;40551;50.478;19.378;2023-06-26T05:20:10;13.60;;;11.20;;
53525;SDS011;40551;50.478;19.378;2023-06-26T05:22:42;10.10;;;7.20;;
53525;SDS011;40551;50.478;19.378;2023-06-26T05:25:14;11.00;;;7.00;;
53525;SDS011;40551;50.478;19.378;2023-06-26T05:27:50;18.30;;;6.30;;
53525;SDS011;40551;50.478;19.378;2023-06-26T05:30:24;10.40;;;6.00;;
53525;SDS011;40551;50.478;19.378;2023-06-26T05:32:57;11.10;;;6.00;;
53525;SDS011;40551;50.478;19.378;2023-06-26T05:35:30;9.30;;;6.30;;
53525;SDS011;40551;50.478;19.378;2023-06-26T05:38:04;8.90;;;5.90;;
53525;SDS011;40551;50.478;19.378;2023-06-26T05:40:36;9.40;;;5.60;;
53525;SDS011;40551;50.478;19.378;2023-06-26T05:43:10;9.50;;;6.00;;
53525;SDS011;40551;50.478;19.378;2023-06-26T05:45:43;12.00;;;6.40;;
53525;SDS011;40551;50.478;19.378;2023-06-26T05:48:15;9.70;;;5.90;;
53525;SDS011;40551;50.478;19.378;2023-06-26T05:50:56;12.70;;;6.00;;
53525;SDS011;40551;50.478;19.378;2023-06-26T05:53:33;10.20;;;5.50;;
53525;SDS011;40551;50.478;19.378;2023-06-26T05:56:28;8.60;;;5.60;;
53525;SDS011;40551;50.478;19.378;2023-06-26T05:59:00;10.50;;;5.90;;
53525;SDS011;40551;50.478;19.378;2023-06-26T06:01:38;10.40;;;5.50;;
53525;SDS011;40551;50.478;19.378;2023-06-26T06:04:10;11.20;;;5.70;;
53525;SDS011;40551;50.478;19.378;2023-06-26T06:06:44;12.50;;;4.70;;
53525;SDS011;40551;50.478;19.378;2023-06-26T06:09:16;9.40;;;5.10;;
53525;SDS011;40551;50.478;19.378;2023-06-26T06:11:48;13.10;;;5.10;;
53525;SDS011;40551;50.478;19.378;2023-06-26T06:14:20;8.00;;;4.50;;
53525;SDS011;40551;50.478;19.378;2023-06-26T06:16:55;8.10;;;4.30;;
53525;SDS011;40551;50.478;19.378;2023-06-26T06:19:27;7.80;;;4.20;;
53525;SDS011;40551;50.478;19.378;2023-06-26T06:21:59;8.60;;;4.20;;
53525;SDS011;40551;50.478;19.378;2023-06-26T06:24:31;6.50;;;4.10;;
53525;SDS011;40551;50.478;19.378;2023-06-26T06:27:04;9.00;;;4.40;;
53525;SDS011;40551;50.478;19.378;2023-06-26T06:29:40;9.70;;;4.50;;
53525;SDS011;40551;50.478;19.378;2023-06-26T06:32:12;7.90;;;4.60;;
53525;SDS011;40551;50.478;19.378;2023-06-26T06:34:48;9.30;;;4.10;;
53525;SDS011;40551;50.478;19.378;2023-06-26T06:37:20;9.10;;;4.40;;
53525;SDS011;40551;50.478;19.378;2023-06-26T06:39:53;14.30;;;4.60;;
53525;SDS011;40551;50.478;19.378;2023-06-26T06:42:25;8.50;;;4.10;;
53525;SDS011;40551;50.478;19.378;2023-06-26T06:44:57;9.00;;;3.70;;
53525;SDS011;40551;50.478;19.378;2023-06-26T06:47:31;8.30;;;4.20;;
53525;SDS011;40551;50.478;19.378;2023-06-26T06:50:07;6.80;;;3.70;;
53525;SDS011;40551;50.478;19.378;2023-06-26T06:52:39;8.40;;;4.30;;
53525;SDS011;40551;50.478;19.378;2023-06-26T06:55:15;9.10;;;4.10;;
53525;SDS011;40551;50.478;19.378;2023-06-26T06:57:47;8.30;;;4.00;;
53525;SDS011;40551;50.478;19.378;2023-06-26T07:00:19;6.60;;;4.00;;
53525;SDS011;40551;50.478;19.378;2023-06-26T07:02:52;8.90;;;3.90;;
53525;SDS011;40551;50.478;19.378;2023-06-26T07:05:27;6.90;;;3.80;;
53525;SDS011;40551;50.478;19.378;2023-06-26T07:08:07;7.00;;;4.30;;
53525;SDS011;40551;50.478;19.378;2023-06-26T07:10:43;10.40;;;5.10;;
53525;SDS011;40551;50.478;19.378;2023-06-26T07:13:22;7.20;;;4.00;;
53525;SDS011;40551;50.478;19.378;2023-06-26T07:16:06;6.90;;;4.30;;
53525;SDS011;40551;50.478;19.378;2023-06-26T07:18:43;9.20;;;4.10;;
53525;SDS011;40551;50.478;19.378;2023-06-26T07:21:17;6.50;;;3.60;;
53525;SDS011;40551;50.478;19.378;2023-06-26T07:23:52;9.70;;;3.90;;
53525;SDS011;40551;50.478;19.378;2023-06-26T07:26:26;7.50;;;3.90;;
53525;SDS011;40551;50.478;19.378;2023-06-26T07:29:17;8.30;;;4.20;;
53525;SDS011;40551;50.478;19.378;2023-06-26T07:31:50;8.80;;;3.90;;
53525;SDS011;40551;50.478;19.378;2023-06-26T07:34:24;6.80;;;3.70;;
53525;SDS011;40551;50.478;19.378;2023-06-26T07:37:03;10.50;;;3.60;;
53525;SDS011;40551;50.478;19.378;2023-06-26T07:39:35;6.00;;;3.50;;
53525;SDS011;40551;50.478;19.378;2023-06-26T07:42:09;6.20;;;4.00;;
53525;SDS011;40551;50.478;19.378;2023-06-26T07:44:43;6.00;;;3.50;;
53525;SDS011;40551;50.478;19.378;2023-06-26T07:47:23;8.80;;;4.00;;
53525;SDS011;40551;50.478;19.378;2023-06-26T07:49:59;7.00;;;4.40;;
53525;SDS011;40551;50.478;19.378;2023-06-26T07:52:45;9.10;;;4.10;;
53525;SDS011;40551;50.478;19.378;2023-06-26T07:55:24;8.20;;;3.80;;
53525;SDS011;40551;50.478;19.378;2023-06-26T07:58:04;9.20;;;4.00;;
53525;SDS011;40551;50.478;19.378;2023-06-26T08:00:38;8.30;;;4.80;;
53525;SDS011;40551;50.478;19.378;2023-06-26T08:03:11;15.40;;;4.60;;
53525;SDS011;40551;50.478;19.378;2023-06-26T08:06:06;8.00;;;3.70;;
53525;SDS011;40551;50.478;19.378;2023-06-26T08:08:53;7.70;;;4.00;;
53525;SDS011;40551;50.478;19.378;2023-06-26T08:11:30;6.70;;;4.00;;
53525;SDS011;40551;50.478;19.378;2023-06-26T08:14:11;8.70;;;4.10;;
53525;SDS011;40551;50.478;19.378;2023-06-26T08:16:57;6.80;;;3.80;;
53525;SDS011;40551;50.478;19.378;2023-06-26T08:19:34;7.80;;;4.30;;
53525;SDS011;40551;50.478;19.378;2023-06-26T08:22:23;7.20;;;4.00;;
53525;SDS011;40551;50.478;19.378;2023-06-26T08:24:56;6.50;;;4.00;;
53525;SDS011;40551;50.478;19.378;2023-06-26T08:27:28;6.20;;;4.20;;
53525;SDS011;40551;50.478;19.378;2023-06-26T08:30:06;8.00;;;4.30;;
53525;SDS011;40551;50.478;19.378;2023-06-26T08:32:40;6.50;;;3.70;;
53525;SDS011;40551;50.478;19.378;2023-06-26T08:35:12;7.40;;;4.80;;
53525;SDS011;40551;50.478;19.378;2023-06-26T08:37:45;7.60;;;3.80;;
53525;SDS011;40551;50.478;19.378;2023-06-26T08:40:17;7.00;;;3.70;;
53525;SDS011;40551;50.478;19.378;2023-06-26T08:42:50;7.90;;;3.80;;
53525;SDS011;40551;50.478;19.378;2023-06-26T08:45:22;7.50;;;3.50;;
53525;SDS011;40551;50.478;19.378;2023-06-26T08:47:57;9.60;;;3.60;;
53525;SDS011;40551;50.478;19.378;2023-06-26T08:50:33;6.60;;;3.40;;
53525;SDS011;40551;50.478;19.378;2023-06-26T08:53:09;9.20;;;4.10;;
53525;SDS011;40551;50.478;19.378;2023-06-26T08:55:52;6.80;;;4.10;;
53525;SDS011;40551;50.478;19.378;2023-06-26T08:58:24;7.40;;;4.10;;
53525;SDS011;40551;50.478;19.378;2023-06-26T09:00:57;6.50;;;3.80;;
53525;SDS011;40551;50.478;19.378;2023-06-26T09:03:31;6.80;;;3.80;;
53525;SDS011;40551;50.478;19.378;2023-06-26T09:06:03;6.90;;;3.80;;
53525;SDS011;40551;50.478;19.378;2023-06-26T09:08:35;7.20;;;3.90;;
53525;SDS011;40551;50.478;19.378;2023-06-26T09:11:07;7.90;;;3.60;;
53525;SDS011;40551;50.478;19.378;2023-06-26T09:13:39;8.40;;;4.40;;
53525;SDS011;40551;50.478;19.378;2023-06-26T09:16:12;10.00;;;4.20;;
53525;SDS011;40551;50.478;19.378;2023-06-26T09:18:45;8.30;;;4.00;;
53525;SDS011;40551;50.478;19.378;2023-06-26T09:21:18;9.20;;;4.00;;
53525;SDS011;40551;50.478;19.378;2023-06-26T09:23:54;7.90;;;4.30;;
53525;SDS011;40551;50.478;19.378;2023-06-26T09:26:26;7.60;;;4.10;;
53525;SDS011;40551;50.478;19.378;2023-06-26T09:28:58;7.20;;;4.30;;
53525;SDS011;40551;50.478;19.378;2023-06-26T09:31:31;11.90;;;4.40;;
53525;SDS011;40551;50.478;19.378;2023-06-26T09:34:11;8.20;;;4.10;;
53525;SDS011;40551;50.478;19.378;2023-06-26T09:36:46;7.70;;;4.10;;
53525;SDS011;40551;50.478;19.378;2023-06-26T09:39:18;7.30;;;3.90;;
53525;SDS011;40551;50.478;19.378;2023-06-26T09:41:50;7.20;;;4.40;;
53525;SDS011;40551;50.478;19.378;2023-06-26T09:44:24;8.00;;;4.00;;
53525;SDS011;40551;50.478;19.378;2023-06-26T09:46:56;6.70;;;3.80;;
53525;SDS011;40551;50.478;19.378;2023-06-26T09:49:28;10.70;;;4.40;;
53525;SDS011;40551;50.478;19.378;2023-06-26T09:52:01;6.20;;;4.00;;
53525;SDS011;40551;50.478;19.378;2023-06-26T09:54:33;6.40;;;3.90;;
53525;SDS011;40551;50.478;19.378;2023-06-26T09:57:09;7.40;;;4.10;;
53525;SDS011;40551;50.478;19.378;2023-06-26T09:59:42;8.30;;;4.40;;
53525;SDS011;40551;50.478;19.378;2023-06-26T10:02:15;9.40;;;3.60;;
53525;SDS011;40551;50.478;19.378;2023-06-26T10:04:47;6.60;;;3.80;;
53525;SDS011;40551;50.478;19.378;2023-06-26T10:07:19;8.60;;;3.80;;
53525;SDS011;40551;50.478;19.378;2023-06-26T10:09:53;8.40;;;4.30;;
53525;SDS011;40551;50.478;19.378;2023-06-26T10:12:27;6.70;;;3.90;;
53525;SDS011;40551;50.478;19.378;2023-06-26T10:15:01;7.90;;;4.10;;
53525;SDS011;40551;50.478;19.378;2023-06-26T10:17:35;6.80;;;3.80;;
53525;SDS011;40551;50.478;19.378;2023-06-26T10:20:09;6.60;;;3.70;;
53525;SDS011;40551;50.478;19.378;2023-06-26T10:22:45;6.50;;;4.00;;
53525;SDS011;40551;50.478;19.378;2023-06-26T10:25:19;7.40;;;3.80;;
53525;SDS011;40551;50.478;19.378;2023-06-26T10:27:52;8.90;;;4.30;;
53525;SDS011;40551;50.478;19.378;2023-06-26T10:30:28;6.60;;;4.20;;
53525;SDS011;40551;50.478;19.378;2023-06-26T10:33:02;6.70;;;4.00;;
53525;SDS011;40551;50.478;19.378;2023-06-26T10:35:40;6.70;;;3.50;;
53525;SDS011;40551;50.478;19.378;2023-06-26T10:38:13;7.10;;;3.80;;
53525;SDS011;40551;50.478;19.378;2023-06-26T10:40:45;10.50;;;4.60;;
53525;SDS011;40551;50.478;19.378;2023-06-26T10:43:19;9.20;;;4.60;;
53525;SDS011;40551;50.478;19.378;2023-06-26T10:45:51;7.00;;;4.20;;
53525;SDS011;40551;50.478;19.378;2023-06-26T10:48:29;8.80;;;4.00;;
53525;SDS011;40551;50.478;19.378;2023-06-26T10:51:07;6.70;;;4.20;;
53525;SDS011;40551;50.478;19.378;2023-06-26T10:53:45;6.40;;;4.00;;
53525;SDS011;40551;50.478;19.378;2023-06-26T10:56:40;6.60;;;4.10;;
53525;SDS011;40551;50.478;19.378;2023-06-26T10:59:16;7.40;;;4.30;;
53525;SDS011;40551;50.478;19.378;2023-06-26T11:01:54;7.90;;;4.10;;
53525;SDS011;40551;50.478;19.378;2023-06-26T11:04:37;10.80;;;4.30;;
53525;SDS011;40551;50.478;19.378;2023-06-26T11:07:17;7.10;;;4.10;;
53525;SDS011;40551;50.478;19.378;2023-06-26T11:09:55;7.20;;;3.80;;
53525;SDS011;40551;50.478;19.378;2023-06-26T11:12:35;6.80;;;4.30;;
53525;SDS011;40551;50.478;19.378;2023-06-26T11:15:09;8.60;;;4.10;;
53525;SDS011;40551;50.478;19.378;2023-06-26T11:17:43;6.50;;;4.00;;
53525;SDS011;40551;50.478;19.378;2023-06-26T11:20:15;9.40;;;4.50;;
53525;SDS011;40551;50.478;19.378;2023-06-26T11:22:47;8.40;;;4.10;;
53525;SDS011;40551;50.478;19.378;2023-06-26T11:25:25;6.20;;;3.70;;
53525;SDS011;40551;50.478;19.378;2023-06-26T11:27:57;6.60;;;3.80;;
53525;SDS011;40551;50.478;19.378;2023-06-26T11:30:29;7.60;;;4.00;;
53525;SDS011;40551;50.478;19.378;2023-06-26T11:33:05;7.10;;;4.10;;
53525;SDS011;40551;50.478;19.378;2023-06-26T11:35:38;9.00;;;4.00;;
53525;SDS011;40551;50.478;19.378;2023-06-26T11:38:10;7.60;;;4.20;;
53525;SDS011;40551;50.478;19.378;2023-06-26T11:40:42;6.10;;;3.90;;
53525;SDS011;40551;50.478;19.378;2023-06-26T11:43:14;9.90;;;4.40;;
53525;SDS011;40551;50.478;19.378;2023-06-26T11:45:46;7.70;;;4.40;;
53525;SDS011;40551;50.478;19.378;2023-06-26T11:48:21;6.60;;;3.90;;
53525;SDS011;40551;50.478;19.378;2023-06-26T11:50:55;8.70;;;4.70;;
53525;SDS011;40551;50.478;19.378;2023-06-26T11:53:27;9.10;;;4.60;;
53525;SDS011;40551;50.478;19.378;2023-06-26T11:55:59;6.80;;;4.00;;
53525;SDS011;40551;50.478;19.378;2023-06-26T12:01:40;7.10;;;4.10;;
53525;SDS011;40551;50.478;19.378;2023-06-26T12:04:16;7.30;;;4.20;;
53525;SDS011;40551;50.478;19.378;2023-06-26T12:06:57;7.30;;;3.80;;
53525;SDS011;40551;50.478;19.378;2023-06-26T12:09:29;16.40;;;4.20;;
53525;SDS011;40551;50.478;19.378;2023-06-26T12:12:03;9.10;;;4.30;;
53525;SDS011;40551;50.478;19.378;2023-06-26T12:14:36;9.70;;;4.20;;
53525;SDS011;40551;50.478;19.378;2023-06-26T12:17:10;8.20;;;4.10;;
53525;SDS011;40551;50.478;19.378;2023-06-26T12:19:45;9.70;;;4.20;;
53525;SDS011;40551;50.478;19.378;2023-06-26T12:22:18;7.50;;;4.20;;
53525;SDS011;40551;50.478;19.378;2023-06-26T12:24:51;8.70;;;4.40;;
53525;SDS011;40551;50.478;19.378;2023-06-26T12:27:26;10.00;;;4.40;;
53525;SDS011;40551;50.478;19.378;2023-06-26T12:29:59;7.60;;;4.20;;
53525;SDS011;40551;50.478;19.378;2023-06-26T12:32:36;8.40;;;4.10;;
53525;SDS011;40551;50.478;19.378;2023-06-26T12:35:10;7.30;;;4.00;;
53525;SDS011;40551;50.478;19.378;2023-06-26T12:37:50;8.30;;;4.00;;
53525;SDS011;40551;50.478;19.378;2023-06-26T12:40:24;8.60;;;4.00;;
53525;SDS011;40551;50.478;19.378;2023-06-26T12:42:56;9.60;;;4.50;;
53525;SDS011;40551;50.478;19.378;2023-06-26T12:45:28;7.20;;;4.30;;
53525;SDS011;40551;50.478;19.378;2023-06-26T12:48:11;8.80;;;4.60;;
53525;SDS011;40551;50.478;19.378;2023-06-26T12:50:44;7.20;;;4.10;;
53525;SDS011;40551;50.478;19.378;2023-06-26T12:53:17;16.60;;;4.70;;
53525;SDS011;40551;50.478;19.378;2023-06-26T12:55:50;8.30;;;4.50;;
53525;SDS011;40551;50.478;19.378;2023-06-26T12:58:24;8.10;;;4.60;;
53525;SDS011;40551;50.478;19.378;2023-06-26T13:00:57;9.80;;;4.00;;
53525;SDS011;40551;50.478;19.378;2023-06-26T13:03:29;10.10;;;4.50;;
53525;SDS011;40551;50.478;19.378;2023-06-26T13:06:03;8.80;;;5.10;;
53525;SDS011;40551;50.478;19.378;2023-06-26T13:08:35;7.50;;;4.10;;
53525;SDS011;40551;50.478;19.378;2023-06-26T13:11:08;8.40;;;4.00;;
53525;SDS011;40551;50.478;19.378;2023-06-26T13:13:42;6.60;;;3.60;;
53525;SDS011;40551;50.478;19.378;2023-06-26T13:16:34;7.20;;;4.20;;
53525;SDS011;40551;50.478;19.378;2023-06-26T13:19:06;6.80;;;4.10;;
53525;SDS011;40551;50.478;19.378;2023-06-26T13:21:38;7.40;;;4.30;;
53525;SDS011;40551;50.478;19.378;2023-06-26T13:24:11;10.40;;;4.20;;
53525;SDS011;40551;50.478;19.378;2023-06-26T13:26:46;6.60;;;4.30;;
53525;SDS011;40551;50.478;19.378;2023-06-26T13:29:18;6.80;;;4.30;;
53525;SDS011;40551;50.478;19.378;2023-06-26T13:31:50;10.10;;;4.60;;
53525;SDS011;40551;50.478;19.378;2023-06-26T13:34:23;11.10;;;4.80;;
53525;SDS011;40551;50.478;19.378;2023-06-26T13:36:57;6.90;;;4.30;;
53525;SDS011;40551;50.478;19.378;2023-06-26T13:39:29;8.30;;;4.20;;
53525;SDS011;40551;50.478;19.378;2023-06-26T13:42:02;8.40;;;4.60;;
53525;SDS011;40551;50.478;19.378;2023-06-26T13:44:36;8.50;;;4.40;;
53525;SDS011;40551;50.478;19.378;2023-06-26T13:47:28;6.90;;;4.20;;
53525;SDS011;40551;50.478;19.378;2023-06-26T13:50:00;9.60;;;5.00;;
53525;SDS011;40551;50.478;19.378;2023-06-26T13:52:32;7.10;;;4.40;;
53525;SDS011;40551;50.478;19.378;2023-06-26T13:55:05;10.10;;;5.00;;
53525;SDS011;40551;50.478;19.378;2023-06-26T13:57:38;14.50;;;5.10;;
53525;SDS011;40551;50.478;19.378;2023-06-26T14:00:11;10.00;;;4.80;;
53525;SDS011;40551;50.478;19.378;2023-06-26T14:02:48;11.70;;;4.60;;
53525;SDS011;40551;50.478;19.378;2023-06-26T14:05:21;7.40;;;4.60;;
53525;SDS011;40551;50.478;19.378;2023-06-26T14:08:03;10.20;;;5.10;;
53525;SDS011;40551;50.478;19.378;2023-06-26T14:10:38;9.60;;;5.00;;
53525;SDS011;40551;50.478;19.378;2023-06-26T14:13:11;7.70;;;4.60;;
53525;SDS011;40551;50.478;19.378;2023-06-26T14:15:44;8.00;;;4.70;;
53525;SDS011;40551;50.478;19.378;2023-06-26T14:18:16;7.30;;;4.30;;
53525;SDS011;40551;50.478;19.378;2023-06-26T14:20:48;9.80;;;4.60;;
53525;SDS011;40551;50.478;19.378;2023-06-26T14:23:21;8.30;;;4.80;;
53525;SDS011;40551;50.478;19.378;2023-06-26T14:25:53;6.90;;;4.30;;
53525;SDS011;40551;50.478;19.378;2023-06-26T14:28:26;7.30;;;4.60;;
53525;SDS011;40551;50.478;19.378;2023-06-26T14:30:58;8.70;;;4.60;;
53525;SDS011;40551;50.478;19.378;2023-06-26T14:33:30;7.50;;;4.40;;
53525;SDS011;40551;50.478;19.378;2023-06-26T14:36:03;12.10;;;4.60;;
53525;SDS011;40551;50.478;19.378;2023-06-26T14:38:35;11.00;;;4.50;;
53525;SDS011;40551;50.478;19.378;2023-06-26T14:41:07;8.60;;;4.70;;
53525;SDS011;40551;50.478;19.378;2023-06-26T14:43:40;10.40;;;5.20;;
53525;SDS011;40551;50.478;19.378;2023-06-26T14:46:12;10.40;;;5.00;;
53525;SDS011;40551;50.478;19.378;2023-06-26T14:48:45;13.60;;;5.30;;
53525;SDS011;40551;50.478;19.378;2023-06-26T14:51:17;15.10;;;4.80;;
53525;SDS011;40551;50.478;19.378;2023-06-26T14:53:49;10.60;;;4.90;;
53525;SDS011;40551;50.478;19.378;2023-06-26T14:56:21;15.10;;;5.20;;
53525;SDS011;40551;50.478;19.378;2023-06-26T14:58:53;10.90;;;4.60;;
53525;SDS011;40551;50.478;19.378;2023-06-26T15:01:24;8.90;;;4.60;;
53525;SDS011;40551;50.478;19.378;2023-06-26T15:03:56;10.20;;;4.60;;
53525;SDS011;40551;50.478;19.378;2023-06-26T15:06:29;8.30;;;4.70;;
53525;SDS011;40551;50.478;19.378;2023-06-26T15:09:01;14.30;;;5.00;;
53525;SDS011;40551;50.478;19.378;2023-06-26T15:11:34;15.70;;;4.80;;
53525;SDS011;40551;50.478;19.378;2023-06-26T15:14:07;16.60;;;5.40;;
53525;SDS011;40551;50.478;19.378;2023-06-26T15:16:49;8.10;;;4.80;;
53525;SDS011;40551;50.478;19.378;2023-06-26T15:19:21;12.80;;;4.70;;
53525;SDS011;40551;50.478;19.378;2023-06-26T15:21:53;17.40;;;5.00;;